createdAt,value
2023-05-06T00:02:17.284Z,97859.59
2023-05-06T00:04:43.713Z,97863.38
2023-05-06T00:07:09.998Z,97861.19
2023-05-06T00:09:38.420Z,97867.63
2023-05-06T00:12:04.625Z,97866.81
2023-05-06T00:14:31.028Z,97866.53
2023-05-06T00:16:57.248Z,97864.91
2023-05-06T00:19:23.553Z,97856.34
2023-05-06T00:21:49.877Z,97857.38
2023-05-06T00:24:16.091Z,97859.53
2023-05-06T00:26:45.444Z,97852.56
2023-05-06T00:29:11.906Z,97852.00
2023-05-06T00:31:38.228Z,97866.47
2023-05-06T00:34:04.476Z,97860.56
2023-05-06T00:36:30.723Z,97851.72
2023-05-06T00:38:56.921Z,97860.00
2023-05-06T00:41:24.306Z,97857.84
2023-05-06T00:43:50.546Z,97865.06
2023-05-06T00:46:16.925Z,97868.00
2023-05-06T00:48:43.230Z,97864.00
2023-05-06T00:51:09.556Z,97865.31
2023-05-06T00:53:35.797Z,97864.75
2023-05-06T00:56:02.150Z,97862.59
2023-05-06T00:58:28.571Z,97860.97
2023-05-06T01:00:54.873Z,97867.66
2023-05-06T01:03:21.295Z,97860.16
2023-05-06T01:05:47.684Z,97867.38
2023-05-06T01:08:13.987Z,97867.63
2023-05-06T01:10:40.415Z,97864.19
2023-05-06T01:13:06.779Z,97864.72
2023-05-06T01:15:33.127Z,97865.00
2023-05-06T01:17:59.554Z,97863.88
2023-05-06T01:20:26.213Z,97852.88
2023-05-06T01:22:52.811Z,97856.09
2023-05-06T01:25:19.148Z,97858.22
2023-05-06T01:27:45.475Z,97853.38
2023-05-06T01:30:11.815Z,97854.69
2023-05-06T01:32:38.099Z,97854.94
2023-05-06T01:35:04.577Z,97853.59
2023-05-06T01:37:32.867Z,97861.63
2023-05-06T01:39:59.194Z,97865.34
2023-05-06T01:42:25.644Z,97863.75
2023-05-06T01:44:52.259Z,97858.66
2023-05-06T01:47:18.638Z,97855.16
2023-05-06T01:49:45.063Z,97858.88
2023-05-06T01:52:11.550Z,97861.03
2023-05-06T01:54:37.938Z,97862.09
2023-05-06T01:57:06.540Z,97861.25
2023-05-06T01:59:33.222Z,97860.72
2023-05-06T02:02:00.936Z,97863.63
2023-05-06T02:04:27.596Z,97870.84
2023-05-06T02:06:54.067Z,97874.56
2023-05-06T02:09:20.547Z,97878.31
2023-05-06T02:11:47.055Z,97879.63
2023-05-06T02:14:13.470Z,97879.88
2023-05-06T02:16:40.328Z,97874.53
2023-05-06T02:19:06.665Z,97867.03
2023-05-06T02:21:33.060Z,97876.09
2023-05-06T02:23:59.489Z,97878.25
2023-05-06T02:26:25.987Z,97875.81
2023-05-06T02:28:52.348Z,97871.78
2023-05-06T02:31:18.898Z,97872.84
2023-05-06T02:33:45.577Z,97873.09
2023-05-06T02:36:12.029Z,97865.31
2023-05-06T02:38:38.553Z,97866.66
2023-05-06T02:41:04.887Z,97864.25
2023-05-06T02:43:31.350Z,97867.94
2023-05-06T02:46:01.003Z,97873.56
2023-05-06T02:48:27.504Z,97874.38
2023-05-06T02:50:53.867Z,97877.06
2023-05-06T02:53:20.283Z,97879.72
2023-05-06T02:55:46.645Z,97874.63
2023-05-06T02:58:13.148Z,97881.28
2023-05-06T03:00:39.516Z,97882.09
2023-05-06T03:03:05.820Z,97882.34
2023-05-06T03:05:32.791Z,97880.47
2023-05-06T03:07:59.111Z,97881.78
2023-05-06T03:10:25.527Z,97888.19
2023-05-06T03:12:52.084Z,97882.84
2023-05-06T03:15:18.431Z,97893.53
2023-05-06T03:17:44.814Z,97886.59
2023-05-06T03:20:14.131Z,97889.50
2023-05-06T03:22:40.515Z,97884.16
2023-05-06T03:25:07.025Z,97891.38
2023-05-06T03:27:33.398Z,97888.13
2023-05-06T03:29:59.727Z,97895.59
2023-05-06T03:32:26.108Z,97890.25
2023-05-06T03:34:52.422Z,97888.66
2023-05-06T03:37:18.781Z,97887.28
2023-05-06T03:39:45.289Z,97890.75
2023-05-06T03:42:13.387Z,97891.28
2023-05-06T03:44:39.732Z,97901.41
2023-05-06T03:47:06.121Z,97899.81
2023-05-06T03:49:32.556Z,97900.84
2023-05-06T03:51:58.851Z,97900.03
2023-05-06T03:54:27.474Z,97900.28
2023-05-06T03:56:53.845Z,97906.69
2023-05-06T03:59:20.237Z,97901.34
2023-05-06T04:01:46.725Z,97908.56
2023-05-06T04:04:13.035Z,97906.16
2023-05-06T04:06:39.362Z,97909.63
2023-05-06T04:09:05.788Z,97908.00
2023-05-06T04:11:32.132Z,97904.53
2023-05-06T04:13:58.593Z,97911.75
2023-05-06T04:16:25.306Z,97905.56
2023-05-06T04:18:51.846Z,97913.84
2023-05-06T04:21:18.380Z,97911.19
2023-05-06T04:23:44.792Z,97911.44
2023-05-06T04:26:11.399Z,97911.44
2023-05-06T04:28:37.860Z,97907.13
2023-05-06T04:31:04.242Z,97918.88
2023-05-06T04:33:30.635Z,97911.94
2023-05-06T04:35:57.153Z,97913.53
2023-05-06T04:38:23.515Z,97920.75
2023-05-06T04:40:50.029Z,97918.88
2023-05-06T04:43:17.684Z,97914.38
2023-05-06T04:45:44.146Z,97911.94
2023-05-06T04:48:10.537Z,97915.41
2023-05-06T04:50:37.101Z,97918.38
2023-05-06T04:53:03.417Z,97924.91
2023-05-06T04:55:30.264Z,97938.28
2023-05-06T04:57:56.889Z,97936.09
2023-05-06T05:00:23.250Z,97930.75
2023-05-06T05:02:49.859Z,97935.03
2023-05-06T05:05:16.259Z,97945.25
2023-05-06T05:07:42.626Z,97937.75
2023-05-06T05:10:08.914Z,97946.91
2023-05-06T05:12:35.929Z,97951.19
2023-05-06T05:15:02.293Z,97950.13
2023-05-06T05:17:28.681Z,97954.94
2023-05-06T05:19:55.049Z,97949.84
2023-05-06T05:22:21.488Z,97949.03
2023-05-06T05:24:47.878Z,97958.47
2023-05-06T05:27:14.303Z,97970.19
2023-05-06T05:29:40.819Z,97959.19
2023-05-06T05:32:07.164Z,97958.97
2023-05-06T05:34:33.672Z,97963.13
2023-05-06T05:37:00.012Z,97967.34
2023-05-06T05:39:26.338Z,97961.78
2023-05-06T05:41:52.719Z,97962.56
2023-05-06T05:44:19.215Z,97972.22
2023-05-06T05:46:45.774Z,97978.88
2023-05-06T05:49:12.117Z,97991.34
2023-05-06T05:51:38.654Z,97988.84
2023-05-06T05:54:04.952Z,97988.31
2023-05-06T05:56:31.448Z,97984.97
2023-05-06T05:58:57.776Z,97983.94
2023-05-06T06:01:24.095Z,97987.06
2023-05-06T06:03:50.605Z,97982.72
2023-05-06T06:06:17.107Z,97986.97
2023-05-06T06:08:43.461Z,97987.78
2023-05-06T06:11:10.069Z,97983.25
2023-05-06T06:13:36.507Z,97984.88
2023-05-06T06:16:03.030Z,97985.41
2023-05-06T06:18:29.473Z,97985.69
2023-05-06T06:20:56.006Z,97989.47
2023-05-06T06:23:22.419Z,97997.72
2023-05-06T06:25:48.914Z,97993.66
2023-05-06T06:28:15.456Z,97986.97
2023-05-06T06:30:41.786Z,97997.25
2023-05-06T06:33:08.299Z,98010.09
2023-05-06T06:35:34.739Z,97998.53
2023-05-06T06:38:04.472Z,98005.31
2023-05-06T06:40:31.066Z,98004.72
2023-05-06T06:42:57.395Z,97994.22
2023-05-06T06:45:23.778Z,98000.69
2023-05-06T06:47:50.232Z,98009.53
2023-05-06T06:50:16.702Z,98017.69
2023-05-06T06:52:43.145Z,98014.81
2023-05-06T06:55:09.803Z,98000.28
2023-05-06T06:57:36.286Z,98012.97
2023-05-06T07:00:02.822Z,98030.81
2023-05-06T07:02:29.152Z,98007.94
2023-05-06T07:04:55.552Z,98003.88
2023-05-06T07:07:21.898Z,98023.22
2023-05-06T07:09:48.168Z,98016.56
2023-05-06T07:12:14.508Z,98009.78
2023-05-06T07:14:40.815Z,98037.75
2023-05-06T07:17:07.146Z,98044.47
2023-05-06T07:19:33.440Z,98037.75
2023-05-06T07:21:59.694Z,98013.59
2023-05-06T07:24:26.007Z,98012.00
2023-05-06T07:26:52.401Z,98032.94
2023-05-06T07:29:18.835Z,98041.00
2023-05-06T07:31:45.377Z,98075.38
2023-05-06T07:34:11.854Z,98060.06
2023-05-06T07:36:39.993Z,98106.03
2023-05-06T07:39:06.692Z,98102.75
2023-05-06T07:41:33.260Z,98044.97
2023-05-06T07:43:59.620Z,98052.50
2023-05-06T07:46:26.115Z,98018.91
2023-05-06T07:48:52.625Z,98013.03
2023-05-06T07:51:19.205Z,98009.25
2023-05-06T07:53:45.654Z,98084.50
2023-05-06T07:56:12.553Z,98187.13
2023-05-06T07:58:38.964Z,98182.47
2023-05-06T08:01:05.407Z,98206.91
2023-05-06T08:06:26.074Z,98304.91
2023-05-06T08:08:52.588Z,98336.97
2023-05-06T08:11:20.943Z,98361.06
2023-05-06T08:13:48.614Z,98266.41
2023-05-06T08:16:17.895Z,98067.41
2023-05-06T08:18:46.711Z,98057.88
2023-05-06T08:21:15.291Z,98027.94
2023-05-06T08:23:41.541Z,98018.63
2023-05-06T08:26:07.873Z,98184.88
2023-05-06T08:28:34.462Z,98318.53
2023-05-06T08:31:03.289Z,98396.31
2023-05-06T08:33:29.678Z,98417.50
2023-05-06T08:35:55.950Z,98429.16
2023-05-06T08:38:22.395Z,98403.34
2023-05-06T08:40:49.227Z,98122.72
2023-05-06T08:43:15.851Z,98081.09
2023-05-06T08:45:42.198Z,98083.84
2023-05-06T08:48:08.908Z,98326.75
2023-05-06T08:50:35.275Z,98364.56
2023-05-06T08:53:01.773Z,98294.53
2023-05-06T08:55:28.247Z,98258.16
2023-05-06T08:57:54.612Z,98105.34
2023-05-06T09:00:21.090Z,98012.16
2023-05-06T09:02:47.530Z,98002.75
2023-05-06T09:05:13.958Z,98001.09
2023-05-06T09:07:40.308Z,98011.09
2023-05-06T09:10:06.860Z,98005.72
2023-05-06T09:12:33.515Z,98012.41
2023-05-06T09:14:59.970Z,98016.16
2023-05-06T09:17:26.654Z,98021.78
2023-05-06T09:19:55.303Z,98019.09
2023-05-06T09:22:22.966Z,98013.41
2023-05-06T09:24:49.396Z,98026.63
2023-05-06T09:27:16.171Z,98013.72
2023-05-06T09:29:42.791Z,98013.75
2023-05-06T09:32:09.296Z,98018.03
2023-05-06T09:34:35.862Z,98003.50
2023-05-06T09:37:02.319Z,98018.25
2023-05-06T09:39:28.775Z,98017.16
2023-05-06T09:41:55.171Z,98005.03
2023-05-06T09:44:21.658Z,98011.78
2023-05-06T09:46:48.200Z,98011.47
2023-05-06T09:49:14.701Z,98011.47
2023-05-06T09:51:41.076Z,98010.44
2023-05-06T09:54:07.675Z,98019.34
2023-05-06T09:56:33.974Z,98021.22
2023-05-06T09:59:02.324Z,98015.28
2023-05-06T10:01:36.208Z,98018.72
2023-05-06T10:04:04.019Z,98024.34
2023-05-06T10:06:30.638Z,98027.56
2023-05-06T10:08:56.884Z,98021.38
2023-05-06T10:11:23.110Z,98024.56
2023-05-06T10:13:49.394Z,98018.34
2023-05-06T10:16:15.929Z,98018.06
2023-05-06T10:18:42.398Z,98019.41
2023-05-06T10:21:08.610Z,98001.69
2023-05-06T10:23:36.168Z,98014.03
2023-05-06T10:26:02.542Z,98004.84
2023-05-06T10:28:30.969Z,98017.75
2023-05-06T10:30:57.999Z,98013.19
2023-05-06T10:33:24.238Z,98008.06
2023-05-06T10:35:50.454Z,98007.78
2023-05-06T10:38:16.665Z,97997.28
2023-05-06T10:40:43.112Z,97985.75
2023-05-06T10:43:09.374Z,97976.91
2023-05-06T10:46:01.577Z,97968.56
2023-05-06T10:48:27.681Z,97969.97
2023-05-06T10:50:54.025Z,97975.34
2023-05-06T10:53:20.404Z,97979.06
2023-05-06T10:55:46.826Z,97981.41
2023-05-06T10:58:13.031Z,97986.50
2023-05-06T11:00:39.300Z,97982.63
2023-05-06T11:03:05.727Z,97986.38
2023-05-06T11:05:32.277Z,97982.06
2023-05-06T11:08:00.525Z,97985.00
2023-05-06T11:10:29.148Z,97986.81
2023-05-06T11:12:55.482Z,97991.63
2023-05-06T11:15:23.163Z,97989.16
2023-05-06T11:17:53.927Z,97989.97
2023-05-06T11:20:20.490Z,97973.84
2023-05-06T11:22:46.788Z,97964.47
2023-05-06T11:25:13.156Z,97972.28
2023-05-06T11:27:41.524Z,97970.69
2023-05-06T11:30:07.932Z,97962.09
2023-05-06T11:32:34.484Z,97968.59
2023-05-06T11:35:01.034Z,97966.97
2023-05-06T11:37:27.697Z,97964.81
2023-05-06T11:39:54.302Z,97966.94
2023-05-06T11:42:20.783Z,97970.16
2023-05-06T11:44:47.259Z,97962.59
2023-05-06T11:47:13.646Z,97965.53
2023-05-06T11:49:40.193Z,97971.16
2023-05-06T11:52:06.705Z,97961.16
2023-05-06T11:54:33.235Z,97969.75
2023-05-06T11:56:59.677Z,97972.97
2023-05-06T11:59:26.140Z,97969.19
2023-05-06T12:01:52.706Z,97964.88
2023-05-06T12:04:20.862Z,97969.97
2023-05-06T12:06:48.118Z,97960.81
2023-05-06T12:09:14.613Z,97965.91
2023-05-06T12:11:42.562Z,97964.09
2023-05-06T12:14:10.263Z,97965.75
2023-05-06T12:16:36.765Z,97963.91
2023-05-06T12:19:03.137Z,97964.47
2023-05-06T12:21:32.028Z,97960.78
2023-05-06T12:23:58.644Z,97965.38
2023-05-06T12:26:25.068Z,97968.06
2023-05-06T12:31:19.981Z,97968.88
2023-05-06T12:33:46.525Z,97969.72
2023-05-06T12:36:12.925Z,97968.41
2023-05-06T12:38:39.335Z,97967.63
2023-05-06T12:41:05.640Z,97967.91
2023-05-06T12:43:32.133Z,97967.91
2023-05-06T12:45:58.471Z,97956.88
2023-05-06T12:48:24.856Z,97969.84
2023-05-06T12:53:42.500Z,97969.31
2023-05-06T12:56:08.783Z,97971.22
2023-05-06T12:58:35.069Z,97968.56
2023-05-06T13:01:01.396Z,97967.75
2023-05-06T13:03:28.198Z,97964.78
2023-05-06T13:05:54.644Z,97966.69
2023-05-06T13:08:20.949Z,97967.75
2023-05-06T13:10:47.298Z,97956.47
2023-05-06T13:13:13.641Z,97959.19
2023-05-06T13:15:40.294Z,97952.78
2023-05-06T13:18:07.127Z,97952.84
2023-05-06T13:20:33.510Z,97948.81
2023-05-06T13:23:00.008Z,97951.22
2023-05-06T13:25:26.357Z,97950.41
2023-05-06T13:27:52.679Z,97950.41
2023-05-06T13:30:19.140Z,97945.03
2023-05-06T13:32:45.493Z,97951.22
2023-05-06T13:35:12.195Z,97947.16
2023-05-06T13:37:38.788Z,97937.16
2023-05-06T13:40:05.609Z,97944.19
2023-05-06T13:42:32.112Z,97945.50
2023-05-06T13:44:58.536Z,97939.84
2023-05-06T13:47:25.019Z,97939.31
2023-05-06T13:49:51.373Z,97936.31
2023-05-06T13:52:17.699Z,97923.91
2023-05-06T13:54:44.069Z,97927.13
2023-05-06T13:57:10.385Z,97923.66
2023-05-06T13:59:36.765Z,97924.44
2023-05-06T14:02:04.610Z,97913.94
2023-05-06T14:04:32.712Z,97916.63
2023-05-06T14:06:59.269Z,97912.91
2023-05-06T14:09:26.744Z,97918.59
2023-05-06T14:11:52.934Z,97912.41
2023-05-06T14:14:19.203Z,97911.06
2023-05-06T14:16:45.550Z,97912.19
2023-05-06T14:19:11.827Z,97910.84
2023-05-06T14:21:39.097Z,97907.91
2023-05-06T14:24:07.333Z,97908.72
2023-05-06T14:26:34.233Z,97900.63
2023-05-06T14:29:00.566Z,97896.03
2023-05-06T14:31:26.810Z,97900.63
2023-05-06T14:33:53.221Z,97893.63
2023-05-06T14:36:19.441Z,97887.72
2023-05-06T14:38:46.003Z,97890.97
2023-05-06T14:41:12.385Z,97891.28
2023-05-06T14:43:38.640Z,97892.91
2023-05-06T14:46:05.156Z,97884.34
2023-05-06T14:48:31.684Z,97895.13
2023-05-06T14:50:58.151Z,97888.09
2023-05-06T14:53:24.515Z,97883.53
2023-05-06T14:55:50.873Z,97890.00
2023-05-06T14:58:18.297Z,97885.97
2023-05-06T15:00:44.623Z,97882.44
2023-05-06T15:03:11.295Z,97885.44
2023-05-06T15:05:37.875Z,97886.78
2023-05-06T15:08:06.529Z,97884.38
2023-05-06T15:10:34.248Z,97890.06
2023-05-06T15:13:00.499Z,97885.78
2023-05-06T15:15:26.778Z,97886.84
2023-05-06T15:17:53.361Z,97885.53
2023-05-06T15:20:19.817Z,97883.13
2023-05-06T15:22:46.335Z,97885.00
2023-05-06T15:25:19.448Z,97871.84
2023-05-06T15:27:52.756Z,97881.28
2023-05-06T15:30:19.013Z,97877.78
2023-05-06T15:32:45.357Z,97878.88
2023-05-06T15:35:12.102Z,97874.56
2023-05-06T15:37:38.570Z,97875.66
2023-05-06T15:40:04.790Z,97880.25
2023-05-06T15:42:31.006Z,97884.53
2023-05-06T15:44:57.242Z,97877.03
2023-05-06T15:47:23.495Z,97886.19
2023-05-06T15:49:54.551Z,97884.06
2023-05-06T15:52:21.422Z,97880.84
2023-05-06T15:54:49.860Z,97893.50
2023-05-06T15:57:16.284Z,97883.00
2023-05-06T15:59:42.560Z,97885.19
2023-05-06T16:04:38.182Z,97883.88
2023-05-06T16:07:04.915Z,97872.56
2023-05-06T16:09:31.234Z,97876.63
2023-05-06T16:11:57.579Z,97877.72
2023-05-06T16:14:23.857Z,97858.16
2023-05-06T16:16:50.236Z,97873.97
2023-05-06T16:19:16.660Z,97875.59
2023-05-06T16:21:42.994Z,97883.91
2023-05-06T16:24:09.598Z,97882.53
2023-05-06T16:26:41.522Z,97883.88
2023-05-06T16:29:07.809Z,97892.47
2023-05-06T16:34:01.684Z,97891.09
2023-05-06T16:36:27.974Z,97894.31
2023-05-06T16:38:54.291Z,97897.28
2023-05-06T16:41:20.669Z,97901.59
2023-05-06T16:43:47.088Z,97897.00
2023-05-06T16:46:13.454Z,97892.72
2023-05-06T16:48:39.834Z,97884.44
2023-05-06T16:51:06.233Z,97898.88
2023-05-06T16:53:32.543Z,97898.88
2023-05-06T16:55:58.873Z,97891.91
2023-05-06T16:58:25.196Z,97900.78
2023-05-06T17:00:51.935Z,97897.28
2023-05-06T17:03:18.515Z,97895.69
2023-05-06T17:08:12.014Z,97895.16
2023-05-06T17:10:38.463Z,97905.94
2023-05-06T17:13:05.242Z,97901.63
2023-05-06T17:15:31.678Z,97898.41
2023-05-06T17:17:58.190Z,97899.50
2023-05-06T17:20:24.559Z,97897.09
2023-05-06T17:22:50.809Z,97887.41
2023-05-06T17:25:17.252Z,97895.75
2023-05-06T17:27:43.701Z,97893.34
2023-05-06T17:30:10.128Z,97894.72
2023-05-06T17:32:36.593Z,97888.53
2023-05-06T17:35:02.971Z,97890.97
2023-05-06T17:37:29.231Z,97891.28
2023-05-06T17:39:55.790Z,97892.63
2023-05-06T17:42:22.115Z,97891.03
2023-05-06T17:44:48.363Z,97894.00
2023-05-06T17:47:14.681Z,97895.34
2023-05-06T17:49:40.940Z,97892.13
2023-05-06T17:52:07.339Z,97899.69
2023-05-06T17:54:33.850Z,97894.06
2023-05-06T17:57:00.240Z,97899.72
2023-05-06T17:59:28.126Z,97903.75
2023-05-06T18:01:54.674Z,97895.16
2023-05-06T18:04:21.058Z,97897.03
2023-05-06T18:06:47.384Z,97903.00
2023-05-06T18:09:13.815Z,97906.25
2023-05-06T18:11:40.171Z,97912.69
2023-05-06T18:14:06.488Z,97910.56
2023-05-06T18:16:33.158Z,97911.13
2023-05-06T18:18:59.444Z,97921.66
2023-05-06T18:21:25.734Z,97917.63
2023-05-06T18:23:56.042Z,97916.31
2023-05-06T18:29:01.679Z,97918.22
2023-05-06T18:31:28.037Z,97920.38
2023-05-06T18:33:54.399Z,97924.41
2023-05-06T18:36:20.655Z,97932.75
2023-05-06T18:38:47.020Z,97933.31
2023-05-06T18:41:13.476Z,97935.47
2023-05-06T18:43:40.679Z,97934.16
2023-05-06T18:46:07.026Z,97934.41
2023-05-06T18:48:33.386Z,97937.66
2023-05-06T18:50:59.710Z,97937.94
2023-05-06T18:53:26.361Z,97941.19
2023-05-06T18:55:52.686Z,97944.16
2023-05-06T18:58:18.965Z,97947.09
2023-05-06T19:00:45.211Z,97951.16
2023-05-06T19:03:11.585Z,97954.41
2023-05-06T19:05:37.827Z,97955.72
2023-05-06T19:08:04.506Z,97956.00
2023-05-06T19:10:30.832Z,97940.66
2023-05-06T19:12:59.385Z,97961.94
2023-05-06T19:15:25.740Z,97957.06
2023-05-06T19:17:52.058Z,97953.88
2023-05-06T19:20:18.382Z,97956.03
2023-05-06T19:22:44.651Z,97959.00
2023-05-06T19:25:11.202Z,97956.53
2023-05-06T19:27:37.750Z,97964.88
2023-05-06T19:30:04.323Z,97958.97
2023-05-06T19:32:30.637Z,97955.78
2023-05-06T19:34:56.942Z,97967.59
2023-05-06T19:37:23.214Z,97969.75
2023-05-06T19:39:49.572Z,97967.31
2023-05-06T19:42:16.064Z,97964.91
2023-05-06T19:44:42.356Z,97967.88
2023-05-06T19:47:08.682Z,97966.81
2023-05-06T19:49:35.087Z,97966.00
2023-05-06T19:52:01.484Z,97962.78
2023-05-06T19:54:27.887Z,97964.94
2023-05-06T19:56:54.227Z,97969.78
2023-05-06T19:59:20.581Z,97963.88
2023-05-06T20:01:47.047Z,97964.97
2023-05-06T20:04:13.524Z,97967.09
2023-05-06T20:06:39.765Z,97962.00
2023-05-06T20:09:07.099Z,97968.44
2023-05-06T20:11:33.385Z,97966.31
2023-05-06T20:13:59.780Z,97965.75
2023-05-06T20:16:26.094Z,97966.84
2023-05-06T20:18:52.481Z,97974.09
2023-05-06T20:21:18.995Z,97967.38
2023-05-06T20:23:45.394Z,97969.53
2023-05-06T20:26:11.708Z,97973.28
2023-05-06T20:28:38.052Z,97980.03
2023-05-06T20:31:04.362Z,97972.22
2023-05-06T20:33:30.749Z,97980.53
2023-05-06T20:35:57.107Z,97980.03
2023-05-06T20:38:23.370Z,97980.28
2023-05-06T20:40:49.838Z,97976.25
2023-05-06T20:43:16.192Z,97969.25
2023-05-06T20:45:42.647Z,97976.81
2023-05-06T20:48:09.123Z,97983.50
2023-05-06T20:50:35.474Z,97968.44
2023-05-06T20:53:01.758Z,97976.78
2023-05-06T20:55:28.079Z,97981.38
2023-05-06T20:57:54.401Z,97985.13
2023-05-06T21:00:20.884Z,97980.78
2023-05-06T21:02:47.251Z,97982.66
2023-05-06T21:05:13.824Z,97980.25
2023-05-06T21:07:40.461Z,97982.13
2023-05-06T21:10:06.981Z,97977.03
2023-05-06T21:12:33.292Z,97981.84
2023-05-06T21:14:59.705Z,97994.22
2023-05-06T21:17:26.016Z,97992.88
2023-05-06T21:19:52.607Z,97996.63
2023-05-06T21:22:18.891Z,97995.28
2023-05-06T21:24:45.457Z,97996.38
2023-05-06T21:27:11.855Z,98010.06
2023-05-06T21:29:38.212Z,98019.44
2023-05-06T21:32:04.465Z,98023.22
2023-05-06T21:34:30.778Z,98033.97
2023-05-06T21:36:57.099Z,98031.53
2023-05-06T21:39:23.450Z,98032.59
2023-05-06T21:41:49.887Z,98031.28
2023-05-06T21:44:16.238Z,98024.28
2023-05-06T21:46:42.561Z,98028.81
2023-05-06T21:49:08.886Z,98041.47
2023-05-06T21:51:35.201Z,98044.66
2023-05-06T21:54:01.493Z,98038.22
2023-05-06T21:56:27.809Z,98032.31
2023-05-06T21:58:54.117Z,98037.13
2023-05-06T22:01:20.484Z,98032.84
2023-05-06T22:03:46.852Z,98031.22
2023-05-06T22:06:13.272Z,98036.03
2023-05-06T22:08:39.635Z,98034.44
2023-05-06T22:11:06.091Z,98029.34
2023-05-06T22:13:32.502Z,98028.53
2023-05-06T22:15:58.887Z,98033.09
2023-05-06T22:18:25.389Z,98030.66
2023-05-06T22:20:51.925Z,98037.13
2023-05-06T22:23:18.236Z,98028.53
2023-05-06T22:25:45.064Z,98025.84
2023-05-06T22:28:11.619Z,98030.66
2023-05-06T22:30:37.946Z,98024.75
2023-05-06T22:33:07.201Z,98024.75
2023-05-06T22:35:34.937Z,98029.31
2023-05-06T22:38:01.321Z,98030.66
2023-05-06T22:40:27.606Z,98033.34
2023-05-06T22:42:53.857Z,98031.72
2023-05-06T22:45:26.194Z,98031.19
2023-05-06T22:50:57.473Z,98034.41
2023-05-06T22:53:27.339Z,98026.59
2023-05-06T22:55:53.806Z,98026.84
2023-05-06T22:58:20.190Z,98028.72
2023-05-06T23:00:48.207Z,98029.50
2023-05-06T23:03:16.245Z,98023.03
2023-05-06T23:05:42.690Z,98016.84
2023-05-06T23:10:59.772Z,98026.19
2023-05-06T23:13:26.317Z,98026.72
2023-05-06T23:15:56.018Z,98022.94
2023-05-06T23:21:13.377Z,98008.16
2023-05-06T23:23:40.238Z,98009.50
2023-05-06T23:26:06.738Z,98021.53
2023-05-06T23:28:38.901Z,98014.28
2023-05-06T23:31:18.208Z,98008.38
2023-05-06T23:33:45.425Z,98018.81
2023-05-06T23:36:11.697Z,98007.53
2023-05-06T23:38:38.159Z,98008.84
2023-05-06T23:41:04.733Z,98009.38
2023-05-06T23:43:30.932Z,98011.50
2023-05-06T23:45:57.250Z,98019.00
2023-05-06T23:48:23.911Z,98012.56
2023-05-06T23:50:50.254Z,98013.06
2023-05-06T23:53:16.543Z,98022.44
2023-05-06T23:55:42.793Z,98020.28
2023-05-06T23:58:09.189Z,98028.81
